createdAt,value
2023-01-13T00:01:32.385Z,0.90
2023-01-13T00:04:01.551Z,0.93
2023-01-13T00:06:30.642Z,1.20
2023-01-13T00:08:59.491Z,0.77
2023-01-13T00:11:28.336Z,0.90
2023-01-13T00:13:57.766Z,0.87
2023-01-13T00:16:27.899Z,0.90
2023-01-13T00:18:56.492Z,1.00
2023-01-13T00:21:26.259Z,0.90
2023-01-13T00:23:56.368Z,0.80
2023-01-13T00:26:27.414Z,0.90
2023-01-13T00:29:00.777Z,0.87
2023-01-13T00:31:31.734Z,0.80
2023-01-13T00:34:02.280Z,1.00
2023-01-13T00:36:31.788Z,0.90
2023-01-13T00:39:00.638Z,0.90
2023-01-13T00:41:49.517Z,0.97
2023-01-13T00:44:17.152Z,0.93
2023-01-13T00:46:47.867Z,0.87
2023-01-13T00:49:16.884Z,0.90
2023-01-13T00:51:45.560Z,1.10
2023-01-13T00:54:14.321Z,0.80
2023-01-13T00:56:43.503Z,0.90
2023-01-13T00:59:13.905Z,1.00
2023-01-13T01:01:43.266Z,0.90
2023-01-13T01:04:13.661Z,0.90
2023-01-13T01:06:42.581Z,1.00
2023-01-13T01:09:14.990Z,0.90
2023-01-13T01:11:44.222Z,0.80
2023-01-13T01:14:15.125Z,0.90
2023-01-13T01:16:43.751Z,0.83
2023-01-13T01:19:13.946Z,0.80
2023-01-13T01:21:42.691Z,0.93
2023-01-13T01:24:11.745Z,1.00
2023-01-13T01:26:42.016Z,0.97
2023-01-13T01:29:14.463Z,0.90
2023-01-13T01:31:43.553Z,0.80
2023-01-13T01:34:13.887Z,1.10
2023-01-13T01:36:42.761Z,0.77
2023-01-13T01:39:11.838Z,0.87
2023-01-13T01:42:00.590Z,0.87
2023-01-13T01:44:56.634Z,0.93
2023-01-13T01:47:26.605Z,0.80
2023-01-13T01:49:58.455Z,0.87
2023-01-13T01:52:32.211Z,1.00
2023-01-13T01:55:04.865Z,0.90
2023-01-13T01:57:41.179Z,0.90
2023-01-13T02:00:11.441Z,0.90
2023-01-13T02:02:46.458Z,1.00
2023-01-13T02:05:17.333Z,0.87
2023-01-13T02:07:49.495Z,0.90
2023-01-13T02:10:21.044Z,0.93
2023-01-13T02:12:51.712Z,0.80
2023-01-13T02:15:32.058Z,1.10
2023-01-13T02:18:32.797Z,0.80
2023-01-13T02:21:34.464Z,1.10
2023-01-13T02:24:55.994Z,0.70
2023-01-13T02:27:51.390Z,0.90
2023-01-13T02:30:48.111Z,1.10
2023-01-13T02:33:38.334Z,0.80
2023-01-13T02:36:14.233Z,0.90
2023-01-13T02:38:52.388Z,0.80
2023-01-13T02:41:45.257Z,0.77
2023-01-13T02:44:18.249Z,0.90
2023-01-13T02:46:53.716Z,0.90
2023-01-13T02:49:31.891Z,1.07
2023-01-13T02:52:09.003Z,1.07
2023-01-13T02:54:41.853Z,0.90
2023-01-13T02:57:13.261Z,0.70
2023-01-13T02:59:44.315Z,0.73
2023-01-13T03:02:20.450Z,0.73
2023-01-13T03:04:55.747Z,0.70
2023-01-13T03:07:59.681Z,0.70
2023-01-13T03:10:49.060Z,0.90
2023-01-13T03:13:32.244Z,0.80
2023-01-13T03:16:12.197Z,0.80
2023-01-13T03:18:48.438Z,1.00
2023-01-13T03:21:22.553Z,0.70
2023-01-13T03:23:55.044Z,0.97
2023-01-13T03:26:29.930Z,0.80
2023-01-13T03:29:03.487Z,0.80
2023-01-13T03:31:36.254Z,0.80
2023-01-13T03:34:15.248Z,0.83
2023-01-13T03:36:47.807Z,0.80
2023-01-13T03:39:21.449Z,0.87
2023-01-13T03:41:54.821Z,0.80
2023-01-13T03:44:32.941Z,0.90
2023-01-13T03:47:08.593Z,0.87
2023-01-13T03:49:44.817Z,0.77
2023-01-13T03:52:18.010Z,0.80
2023-01-13T03:54:52.151Z,0.90
2023-01-13T03:57:25.141Z,0.70
2023-01-13T04:00:00.186Z,0.80
2023-01-13T04:02:39.087Z,0.80
2023-01-13T04:05:11.637Z,0.80
2023-01-13T04:08:00.398Z,0.80
2023-01-13T04:10:33.213Z,0.80
2023-01-13T04:13:06.546Z,0.80
2023-01-13T04:15:38.661Z,0.80
2023-01-13T04:18:16.144Z,0.80
2023-01-13T04:20:48.816Z,0.70
2023-01-13T04:23:20.897Z,0.90
2023-01-13T04:25:50.369Z,1.07
2023-01-13T04:28:20.743Z,0.80
2023-01-13T04:30:50.084Z,0.87
2023-01-13T04:33:20.308Z,0.80
2023-01-13T04:35:50.742Z,0.90
2023-01-13T04:38:21.879Z,0.90
2023-01-13T04:40:50.976Z,0.90
2023-01-13T04:43:19.794Z,0.97
2023-01-13T04:45:48.416Z,0.73
2023-01-13T04:48:17.123Z,1.10
2023-01-13T04:50:46.463Z,0.90
2023-01-13T04:53:16.624Z,1.00
2023-01-13T04:55:47.947Z,0.97
2023-01-13T04:58:16.796Z,0.70
2023-01-13T05:00:45.668Z,0.90
2023-01-13T05:03:14.466Z,0.70
2023-01-13T05:05:43.417Z,0.80
2023-01-13T05:08:12.168Z,0.80
2023-01-13T05:10:45.492Z,0.90
2023-01-13T05:13:33.034Z,0.70
2023-01-13T05:16:20.594Z,0.80
2023-01-13T05:18:49.209Z,0.73
2023-01-13T05:21:35.580Z,0.80
2023-01-13T05:24:22.057Z,0.93
2023-01-13T05:26:52.479Z,1.20
2023-01-13T05:29:21.302Z,0.83
2023-01-13T05:31:50.237Z,1.00
2023-01-13T05:34:19.044Z,1.00
2023-01-13T05:36:47.924Z,0.73
2023-01-13T05:39:16.931Z,0.97
2023-01-13T05:42:03.036Z,0.90
2023-01-13T05:44:33.168Z,0.80
2023-01-13T05:47:02.072Z,0.80
2023-01-13T05:49:30.918Z,0.90
2023-01-13T05:52:00.764Z,0.83
2023-01-13T05:54:29.502Z,0.90
2023-01-13T05:56:58.235Z,1.00
2023-01-13T05:59:27.044Z,0.77
2023-01-13T06:01:57.267Z,0.90
2023-01-13T06:04:25.988Z,0.80
2023-01-13T06:06:56.119Z,1.50
2023-01-13T06:09:25.039Z,1.40
2023-01-13T06:11:53.739Z,1.23
2023-01-13T06:14:22.502Z,1.10
2023-01-13T06:16:51.389Z,1.03
2023-01-13T06:19:22.673Z,1.00
2023-01-13T06:21:51.544Z,1.00
2023-01-13T06:24:20.314Z,1.00
2023-01-13T06:26:49.174Z,1.33
2023-01-13T06:29:18.057Z,1.20
2023-01-13T06:31:47.087Z,1.03
2023-01-13T06:34:16.798Z,1.00
2023-01-13T06:36:51.940Z,1.10
2023-01-13T06:39:24.576Z,0.97
2023-01-13T06:42:12.818Z,1.47
2023-01-13T06:44:41.618Z,1.10
2023-01-13T06:47:12.716Z,1.30
2023-01-13T06:49:41.507Z,1.20
2023-01-13T06:52:11.806Z,1.13
2023-01-13T06:54:40.439Z,1.10
2023-01-13T06:57:08.976Z,1.20
2023-01-13T06:59:37.684Z,1.03
2023-01-13T07:02:08.475Z,1.20
2023-01-13T07:04:38.979Z,1.20
2023-01-13T07:07:08.478Z,1.17
2023-01-13T07:09:38.708Z,1.20
2023-01-13T07:12:07.851Z,1.00
2023-01-13T07:14:54.390Z,1.00
2023-01-13T07:17:25.503Z,1.00
2023-01-13T07:19:54.873Z,1.20
2023-01-13T07:22:26.010Z,1.30
2023-01-13T07:24:56.801Z,1.70
2023-01-13T07:27:25.515Z,1.30
2023-01-13T07:30:00.242Z,1.50
2023-01-13T07:32:29.017Z,1.00
2023-01-13T07:34:58.761Z,1.30
2023-01-13T07:37:27.837Z,1.20
2023-01-13T07:39:58.053Z,1.17
2023-01-13T07:42:44.046Z,1.20
2023-01-13T07:45:13.406Z,1.20
2023-01-13T07:47:42.320Z,1.13
2023-01-13T07:50:11.877Z,1.37
2023-01-13T07:52:40.526Z,1.20
2023-01-13T07:55:11.196Z,1.10
2023-01-13T07:57:39.919Z,1.20
2023-01-13T08:00:12.047Z,1.20
2023-01-13T08:02:41.656Z,1.30
2023-01-13T08:05:11.072Z,1.10
2023-01-13T08:07:40.492Z,1.20
2023-01-13T08:10:11.909Z,1.30
2023-01-13T08:12:58.267Z,1.27
2023-01-13T08:15:26.912Z,1.30
2023-01-13T08:17:55.593Z,1.20
2023-01-13T08:20:24.206Z,1.00
2023-01-13T08:22:53.101Z,1.23
2023-01-13T08:25:23.352Z,1.30
2023-01-13T08:27:52.246Z,1.57
2023-01-13T08:30:21.269Z,1.37
2023-01-13T08:32:51.691Z,1.30
2023-01-13T08:35:21.223Z,1.20
2023-01-13T08:37:50.766Z,1.10
2023-01-13T08:40:20.976Z,1.10
2023-01-13T08:42:52.935Z,1.00
2023-01-13T08:45:21.783Z,1.20
2023-01-13T08:47:54.961Z,1.13
2023-01-13T08:50:23.703Z,1.10
2023-01-13T08:52:52.436Z,1.10
2023-01-13T08:55:21.145Z,1.10
2023-01-13T08:57:52.113Z,1.70
2023-01-13T09:00:22.754Z,1.20
2023-01-13T09:02:51.458Z,1.40
2023-01-13T09:05:20.204Z,1.20
2023-01-13T09:07:48.971Z,1.23
2023-01-13T09:10:18.024Z,1.40
2023-01-13T09:13:04.298Z,1.20
2023-01-13T09:15:36.661Z,1.27
2023-01-13T09:18:05.624Z,1.40
2023-01-13T09:20:34.212Z,1.27
2023-01-13T09:23:03.219Z,1.47
2023-01-13T09:25:32.209Z,1.23
2023-01-13T09:28:03.202Z,1.27
2023-01-13T09:30:35.767Z,1.37
2023-01-13T09:33:21.748Z,1.90
2023-01-13T09:35:50.374Z,1.70
2023-01-13T09:38:19.028Z,2.07
2023-01-13T09:40:50.272Z,2.07
2023-01-13T09:43:41.880Z,2.13
2023-01-13T09:46:33.246Z,1.50
2023-01-13T09:49:03.968Z,2.30
2023-01-13T09:51:39.557Z,1.90
2023-01-13T09:54:14.153Z,1.40
2023-01-13T09:56:42.969Z,1.60
2023-01-13T09:59:13.573Z,3.43
2023-01-13T10:01:57.499Z,3.73
2023-01-13T10:04:26.733Z,8.33
2023-01-13T10:07:00.883Z,14.00
2023-01-13T10:09:35.275Z,7.07
2023-01-13T10:12:27.307Z,4.30
2023-01-13T10:14:57.360Z,1.33
2023-01-13T10:17:33.284Z,2.30
2023-01-13T10:20:13.934Z,3.37
2023-01-13T10:22:52.037Z,4.07
2023-01-13T10:25:38.722Z,4.07
2023-01-13T10:28:12.141Z,2.23
2023-01-13T10:30:42.605Z,2.63
2023-01-13T10:33:17.655Z,3.57
2023-01-13T10:36:00.971Z,3.40
2023-01-13T10:38:32.454Z,9.00
2023-01-13T10:41:02.806Z,1.97
2023-01-13T10:43:32.405Z,2.17
2023-01-13T10:46:07.323Z,2.47
2023-01-13T10:48:44.287Z,3.60
2023-01-13T10:51:22.388Z,3.50
2023-01-13T10:54:03.146Z,2.13
2023-01-13T10:56:34.192Z,1.70
2023-01-13T10:59:18.625Z,1.73
2023-01-13T11:02:00.231Z,1.20
2023-01-13T11:04:34.588Z,1.80
2023-01-13T11:07:05.104Z,1.37
2023-01-13T11:09:34.827Z,1.00
2023-01-13T11:12:04.147Z,1.33
2023-01-13T11:14:50.450Z,1.10
2023-01-13T11:17:35.938Z,1.90
2023-01-13T11:20:20.497Z,2.00
2023-01-13T11:22:53.124Z,1.00
2023-01-13T11:25:25.481Z,1.67
2023-01-13T11:28:05.954Z,2.20
2023-01-13T11:30:43.978Z,1.73
2023-01-13T11:33:28.749Z,1.30
2023-01-13T11:36:08.178Z,1.40
2023-01-13T11:38:46.116Z,1.30
2023-01-13T11:41:24.061Z,1.63
2023-01-13T11:44:08.136Z,1.00
2023-01-13T11:46:37.287Z,1.20
2023-01-13T11:49:06.828Z,1.10
2023-01-13T11:51:44.492Z,1.20
2023-01-13T11:54:35.018Z,1.67
2023-01-13T11:57:29.972Z,1.07
2023-01-13T12:00:28.499Z,1.00
2023-01-13T12:03:18.795Z,0.90
2023-01-13T12:06:03.120Z,1.07
2023-01-13T12:08:55.472Z,0.90
2023-01-13T12:11:32.541Z,1.20
2023-01-13T12:14:16.880Z,0.90
2023-01-13T12:16:50.969Z,1.10
2023-01-13T12:19:28.411Z,1.17
2023-01-13T12:22:04.807Z,1.20
2023-01-13T12:24:45.364Z,1.33
2023-01-13T12:27:21.055Z,0.93
2023-01-13T12:29:52.760Z,1.00
2023-01-13T12:32:25.804Z,1.10
2023-01-13T12:35:12.727Z,1.40
2023-01-13T12:37:46.544Z,1.10
2023-01-13T12:40:30.682Z,1.10
2023-01-13T12:43:26.903Z,1.13
2023-01-13T12:46:32.882Z,0.90
2023-01-13T12:49:08.731Z,1.10
2023-01-13T12:52:00.368Z,1.20
2023-01-13T12:55:04.404Z,1.17
2023-01-13T12:57:36.011Z,1.20
2023-01-13T13:00:17.542Z,1.37
2023-01-13T13:03:29.123Z,1.17
2023-01-13T13:06:07.006Z,1.40
2023-01-13T13:09:00.653Z,1.33
2023-01-13T13:12:01.152Z,1.10
2023-01-13T13:15:05.696Z,1.10
2023-01-13T13:17:44.954Z,1.23
2023-01-13T13:20:55.389Z,1.77
2023-01-13T13:23:46.096Z,1.37
2023-01-13T13:26:30.932Z,1.47
2023-01-13T13:29:29.295Z,1.57
2023-01-13T13:32:35.018Z,1.43
2023-01-13T13:35:26.348Z,1.47
2023-01-13T13:38:29.285Z,1.17
2023-01-13T13:41:15.898Z,1.30
2023-01-13T13:44:03.114Z,1.50
2023-01-13T13:46:49.211Z,1.47
2023-01-13T13:49:20.959Z,1.40
2023-01-13T13:52:00.014Z,1.43
2023-01-13T13:54:29.218Z,1.30
2023-01-13T13:57:28.603Z,1.50
2023-01-13T14:00:00.624Z,1.40
2023-01-13T14:02:33.273Z,1.20
2023-01-13T14:05:19.243Z,1.50
2023-01-13T14:07:50.419Z,1.33
2023-01-13T14:10:22.262Z,1.43
2023-01-13T14:13:01.363Z,1.50
2023-01-13T14:15:42.353Z,1.23
2023-01-13T14:18:15.289Z,1.60
2023-01-13T14:20:53.143Z,1.27
2023-01-13T14:23:26.953Z,1.50
2023-01-13T14:25:56.778Z,1.27
2023-01-13T14:28:32.493Z,1.60
2023-01-13T14:31:03.624Z,1.23
2023-01-13T14:33:38.853Z,1.30
2023-01-13T14:36:23.504Z,1.70
2023-01-13T14:39:29.480Z,1.27
2023-01-13T14:41:58.431Z,1.33
2023-01-13T14:44:29.549Z,1.63
2023-01-13T14:47:00.630Z,1.70
2023-01-13T14:49:36.107Z,1.60
2023-01-13T14:52:16.642Z,1.60
2023-01-13T14:54:52.066Z,1.50
2023-01-13T14:57:27.862Z,1.73
2023-01-13T15:00:06.453Z,1.77
2023-01-13T15:02:46.536Z,1.50
2023-01-13T15:05:49.343Z,1.90
2023-01-13T15:08:37.152Z,1.43
2023-01-13T15:11:08.068Z,1.63
2023-01-13T15:13:46.739Z,1.50
2023-01-13T15:16:25.102Z,1.50
2023-01-13T15:18:54.695Z,1.43
2023-01-13T15:21:25.233Z,2.20
2023-01-13T15:23:55.586Z,1.40
2023-01-13T15:26:26.567Z,2.00
2023-01-13T15:28:56.873Z,2.20
2023-01-13T15:31:26.764Z,1.70
2023-01-13T15:33:56.005Z,2.20
2023-01-13T15:36:27.929Z,4.87
2023-01-13T15:38:59.536Z,3.80
2023-01-13T15:41:45.530Z,2.73
2023-01-13T15:44:34.120Z,4.10
2023-01-13T15:47:06.457Z,3.93
2023-01-13T15:49:39.011Z,7.83
2023-01-13T15:52:21.532Z,4.03
2023-01-13T15:54:52.571Z,4.80
2023-01-13T15:57:24.178Z,5.57
2023-01-13T15:59:56.147Z,27.00
2023-01-13T16:02:25.559Z,28.90
2023-01-13T16:04:55.111Z,9.20
2023-01-13T16:07:26.531Z,4.73
2023-01-13T16:09:56.739Z,2.57
2023-01-13T16:12:25.503Z,2.80
2023-01-13T16:14:54.174Z,3.10
2023-01-13T16:17:25.043Z,3.23
2023-01-13T16:19:53.837Z,3.73
2023-01-13T16:22:22.794Z,2.43
2023-01-13T16:24:51.998Z,5.03
2023-01-13T16:27:24.207Z,3.10
2023-01-13T16:29:54.248Z,3.57
2023-01-13T16:32:22.884Z,2.43
2023-01-13T16:34:51.688Z,3.50
2023-01-13T16:37:22.641Z,2.40
2023-01-13T16:39:52.433Z,1.70
2023-01-13T16:42:23.148Z,2.00
2023-01-13T16:44:53.079Z,1.70
2023-01-13T16:47:29.482Z,1.80
2023-01-13T16:49:58.250Z,1.80
2023-01-13T16:52:27.083Z,1.73
2023-01-13T16:54:55.867Z,1.63
2023-01-13T16:57:26.293Z,1.77
2023-01-13T16:59:55.064Z,1.83
2023-01-13T17:02:24.834Z,1.27
2023-01-13T17:04:53.754Z,1.93
2023-01-13T17:07:23.037Z,2.20
2023-01-13T17:09:51.761Z,1.80
2023-01-13T17:12:20.541Z,2.00
2023-01-13T17:14:50.546Z,1.83
2023-01-13T17:17:24.095Z,1.77
2023-01-13T17:19:53.846Z,1.80
2023-01-13T17:22:23.443Z,1.70
2023-01-13T17:24:52.149Z,1.60
2023-01-13T17:27:21.613Z,2.00
2023-01-13T17:29:51.993Z,1.83
2023-01-13T17:32:23.075Z,1.40
2023-01-13T17:34:53.957Z,1.70
2023-01-13T17:37:22.882Z,1.70
2023-01-13T17:39:53.741Z,1.87
2023-01-13T17:42:25.072Z,1.80
2023-01-13T17:44:55.668Z,1.70
2023-01-13T17:47:24.374Z,1.87
2023-01-13T17:49:53.139Z,1.70
2023-01-13T17:52:22.185Z,2.03
2023-01-13T17:54:50.885Z,1.83
2023-01-13T17:57:19.548Z,2.03
2023-01-13T17:59:48.281Z,2.00
2023-01-13T18:02:18.783Z,1.70
2023-01-13T18:04:47.741Z,1.67
2023-01-13T18:07:16.518Z,2.00
2023-01-13T18:09:45.255Z,2.63
2023-01-13T18:12:14.021Z,2.40
2023-01-13T18:14:46.863Z,2.73
2023-01-13T18:17:15.645Z,2.37
2023-01-13T18:20:03.399Z,2.70
2023-01-13T18:22:49.778Z,2.60
2023-01-13T18:25:35.784Z,2.47
2023-01-13T18:28:05.084Z,2.40
2023-01-13T18:30:33.971Z,3.00
2023-01-13T18:33:02.798Z,2.53
2023-01-13T18:35:32.992Z,2.60
2023-01-13T18:38:01.814Z,2.47
2023-01-13T18:40:30.510Z,2.20
2023-01-13T18:42:59.320Z,2.80
2023-01-13T18:45:30.638Z,2.97
2023-01-13T18:48:01.447Z,2.90
2023-01-13T18:50:31.076Z,3.37
2023-01-13T18:53:01.343Z,3.40
2023-01-13T18:55:30.238Z,2.30
2023-01-13T18:57:59.416Z,2.30
2023-01-13T19:00:28.190Z,2.20
2023-01-13T19:05:36.179Z,2.30
2023-01-13T19:08:06.839Z,2.47
2023-01-13T19:10:36.668Z,2.77
2023-01-13T19:13:05.354Z,2.60
2023-01-13T19:15:34.250Z,2.50
2023-01-13T19:18:02.935Z,2.00
2023-01-13T19:20:31.726Z,2.30
2023-01-13T19:23:00.503Z,2.03
2023-01-13T19:25:30.803Z,2.30
2023-01-13T19:27:59.480Z,1.87
2023-01-13T19:30:28.288Z,2.50
2023-01-13T19:32:57.471Z,2.00
2023-01-13T19:35:26.379Z,2.07
2023-01-13T19:37:56.171Z,2.20
2023-01-13T19:40:24.911Z,1.87
2023-01-13T19:43:12.535Z,2.20
2023-01-13T19:45:41.179Z,2.10
2023-01-13T19:48:10.052Z,2.10
2023-01-13T19:50:39.822Z,1.90
2023-01-13T19:53:15.718Z,1.87
2023-01-13T19:55:47.855Z,1.80
2023-01-13T19:58:19.996Z,2.07
2023-01-13T20:00:49.025Z,1.90
2023-01-13T20:03:19.250Z,1.90
2023-01-13T20:05:48.249Z,2.00
2023-01-13T20:08:17.053Z,2.03
2023-01-13T20:10:47.136Z,2.40
2023-01-13T20:13:17.592Z,1.70
2023-01-13T20:15:46.385Z,2.07
2023-01-13T20:18:15.015Z,2.10
2023-01-13T20:20:43.669Z,2.03
2023-01-13T20:23:12.504Z,2.10
2023-01-13T20:25:43.532Z,1.80
2023-01-13T20:28:12.280Z,2.20
2023-01-13T20:30:43.117Z,3.17
2023-01-13T20:33:11.860Z,2.80
2023-01-13T20:35:40.598Z,2.20
2023-01-13T20:38:09.512Z,2.47
2023-01-13T20:40:38.230Z,2.20
2023-01-13T20:43:06.392Z,2.13
2023-01-13T20:45:35.074Z,2.30
2023-01-13T20:48:05.311Z,1.87
2023-01-13T20:50:34.014Z,2.17
2023-01-13T20:53:02.788Z,2.30
2023-01-13T20:55:31.649Z,2.20
2023-01-13T20:58:00.347Z,1.87
2023-01-13T21:00:29.905Z,2.50
2023-01-13T21:02:59.682Z,2.10
2023-01-13T21:05:29.828Z,1.90
2023-01-13T21:07:58.504Z,2.10
2023-01-13T21:10:27.176Z,2.50
2023-01-13T21:13:13.316Z,2.30
2023-01-13T21:15:41.968Z,2.30
2023-01-13T21:18:28.321Z,2.00
2023-01-13T21:21:11.810Z,2.57
2023-01-13T21:23:41.191Z,2.30
2023-01-13T21:26:10.984Z,2.00
2023-01-13T21:28:39.848Z,2.10
2023-01-13T21:31:10.666Z,1.87
2023-01-13T21:33:39.972Z,1.80
2023-01-13T21:36:12.741Z,2.03
2023-01-13T21:38:42.030Z,2.10
2023-01-13T21:41:14.329Z,2.00
2023-01-13T21:44:02.926Z,2.00
2023-01-13T21:46:49.162Z,1.90
2023-01-13T21:49:17.788Z,2.07
2023-01-13T21:51:47.989Z,1.93
2023-01-13T21:54:16.627Z,1.70
2023-01-13T21:56:46.313Z,1.80
2023-01-13T21:59:14.989Z,2.30
2023-01-13T22:01:45.936Z,2.07
2023-01-13T22:04:32.417Z,2.07
2023-01-13T22:07:04.743Z,2.23
2023-01-13T22:09:33.333Z,1.80
2023-01-13T22:12:02.565Z,1.83
2023-01-13T22:14:31.267Z,1.90
2023-01-13T22:17:01.153Z,1.80
2023-01-13T22:19:30.586Z,2.00
2023-01-13T22:21:59.320Z,1.83
2023-01-13T22:24:30.383Z,2.00
2023-01-13T22:26:59.144Z,1.93
2023-01-13T22:29:27.845Z,1.90
2023-01-13T22:31:56.579Z,1.87
2023-01-13T22:34:25.435Z,2.00
2023-01-13T22:36:54.148Z,1.93
2023-01-13T22:39:22.769Z,1.83
2023-01-13T22:41:53.112Z,1.70
2023-01-13T22:44:22.492Z,1.67
2023-01-13T22:46:51.413Z,1.67
2023-01-13T22:49:20.355Z,1.60
2023-01-13T22:51:49.259Z,1.87
2023-01-13T22:54:19.352Z,1.60
2023-01-13T22:56:48.123Z,1.53
2023-01-13T22:59:18.449Z,1.70
2023-01-13T23:01:47.152Z,2.00
2023-01-13T23:04:15.932Z,1.73
2023-01-13T23:06:44.754Z,1.60
2023-01-13T23:09:13.491Z,1.67
2023-01-13T23:11:42.821Z,1.80
2023-01-13T23:14:14.163Z,1.57
2023-01-13T23:16:44.386Z,1.63
2023-01-13T23:19:13.539Z,1.57
2023-01-13T23:21:42.591Z,1.80
2023-01-13T23:24:11.907Z,1.40
2023-01-13T23:26:40.892Z,1.30
2023-01-13T23:29:13.151Z,1.53
2023-01-13T23:31:43.372Z,1.60
2023-01-13T23:34:12.103Z,1.40
2023-01-13T23:36:41.881Z,1.77
2023-01-13T23:39:10.630Z,1.90
2023-01-13T23:41:39.405Z,1.67
2023-01-13T23:44:08.213Z,1.80
2023-01-13T23:46:37.002Z,1.50
2023-01-13T23:49:07.178Z,1.60
2023-01-13T23:51:35.812Z,2.20
2023-01-13T23:54:04.422Z,1.80
2023-01-13T23:56:34.149Z,1.50
2023-01-13T23:59:02.841Z,1.93
